createdAt,value
2019-01-17T00:00:52.137Z,6.16
2019-01-17T00:03:32.566Z,6.38
2019-01-17T00:06:21.043Z,6.09
2019-01-17T00:09:18.443Z,6.79
2019-01-17T00:12:05.331Z,6.45
2019-01-17T00:15:09.017Z,6.70
2019-01-17T00:18:12.564Z,6.41
2019-01-17T00:21:03.585Z,5.90
2019-01-17T00:24:02.572Z,5.74
2019-01-17T00:26:48.584Z,5.84
2019-01-17T00:29:35.868Z,6.29
2019-01-17T00:32:39.320Z,6.34
2019-01-17T00:35:37.689Z,5.74
2019-01-17T00:38:17.142Z,5.48
2019-01-17T00:41:16.423Z,5.57
2019-01-17T00:44:23.130Z,5.72
2019-01-17T00:47:01.442Z,5.64
2019-01-17T00:49:40.474Z,6.02
2019-01-17T00:52:27.413Z,6.08
2019-01-17T00:55:15.863Z,6.30
2019-01-17T00:58:51.470Z,6.25
2019-01-17T01:01:40.038Z,6.18
2019-01-17T01:04:28.559Z,6.31
2019-01-17T01:07:29.047Z,6.66
2019-01-17T01:10:15.951Z,6.43
2019-01-17T01:13:13.431Z,6.60
2019-01-17T01:16:13.015Z,6.90
2019-01-17T01:19:01.469Z,6.71
2019-01-17T01:21:56.155Z,7.16
2019-01-17T01:24:50.396Z,7.16
2019-01-17T01:27:44.664Z,7.27
2019-01-17T01:30:37.218Z,7.31
2019-01-17T01:33:30.220Z,7.29
2019-01-17T01:36:24.524Z,7.48
2019-01-17T01:39:15.765Z,7.62
2019-01-17T01:42:13.392Z,7.76
2019-01-17T01:45:00.159Z,7.93
2019-01-17T01:47:47.288Z,8.00
2019-01-17T01:50:41.904Z,8.16
2019-01-17T01:53:11.596Z,8.36
2019-01-17T01:55:41.175Z,8.39
2019-01-17T01:58:10.871Z,8.36
2019-01-17T02:00:40.652Z,8.65
2019-01-17T02:03:10.227Z,8.62
2019-01-17T02:05:39.857Z,8.98
2019-01-17T02:08:09.572Z,8.53
2019-01-17T02:10:39.648Z,8.45
2019-01-17T02:13:09.312Z,8.62
2019-01-17T02:15:38.870Z,8.43
2019-01-17T02:18:08.432Z,8.43
2019-01-17T02:20:40.903Z,8.41
2019-01-17T02:23:10.505Z,8.52
2019-01-17T02:25:40.087Z,8.34
2019-01-17T02:28:09.868Z,8.55
2019-01-17T02:30:42.021Z,8.34
2019-01-17T02:33:11.575Z,8.48
2019-01-17T02:35:41.278Z,8.47
2019-01-17T02:38:10.862Z,8.57
2019-01-17T02:40:40.494Z,8.05
2019-01-17T02:43:10.145Z,8.29
2019-01-17T02:45:39.739Z,8.56
2019-01-17T02:48:09.299Z,8.49
2019-01-17T02:50:38.926Z,8.56
2019-01-17T02:53:10.603Z,7.99
2019-01-17T02:55:40.199Z,8.25
2019-01-17T02:58:10.014Z,7.88
2019-01-17T03:00:39.613Z,7.74
2019-01-17T03:03:09.190Z,7.25
2019-01-17T03:05:38.875Z,7.38
2019-01-17T03:08:08.674Z,7.56
2019-01-17T03:10:38.249Z,7.56
2019-01-17T03:13:07.946Z,7.40
2019-01-17T03:15:37.535Z,7.09
2019-01-17T03:18:07.092Z,6.98
2019-01-17T03:20:36.800Z,7.15
2019-01-17T03:23:06.478Z,7.42
2019-01-17T03:25:36.064Z,7.41
2019-01-17T03:28:05.862Z,7.56
2019-01-17T03:30:35.472Z,7.45
2019-01-17T03:33:05.131Z,7.50
2019-01-17T03:35:34.851Z,7.58
2019-01-17T03:38:04.525Z,7.81
2019-01-17T03:40:34.073Z,7.65
2019-01-17T03:43:03.683Z,7.55
2019-01-17T03:45:33.236Z,7.71
2019-01-17T03:48:02.790Z,7.49
2019-01-17T03:50:32.393Z,7.55
2019-01-17T03:53:01.954Z,7.50
2019-01-17T03:55:31.796Z,7.32
2019-01-17T03:58:01.498Z,7.34
2019-01-17T04:00:31.143Z,7.58
2019-01-17T04:03:00.715Z,7.70
2019-01-17T04:05:34.436Z,7.57
2019-01-17T04:08:04.096Z,7.78
2019-01-17T04:10:33.663Z,8.37
2019-01-17T04:13:03.310Z,8.05
2019-01-17T04:15:33.013Z,8.03
2019-01-17T04:18:02.548Z,7.99
2019-01-17T04:20:32.255Z,8.17
2019-01-17T04:23:01.829Z,8.36
2019-01-17T04:25:31.443Z,8.20
2019-01-17T04:28:01.060Z,8.00
2019-01-17T04:30:32.024Z,7.61
2019-01-17T04:33:01.601Z,7.21
2019-01-17T04:35:31.285Z,6.92
2019-01-17T04:38:00.894Z,7.01
2019-01-17T04:40:30.526Z,6.93
2019-01-17T04:43:00.170Z,6.77
2019-01-17T04:45:29.728Z,6.77
2019-01-17T04:47:59.336Z,6.88
2019-01-17T04:50:30.015Z,6.69
2019-01-17T04:52:59.558Z,6.80
2019-01-17T04:55:29.123Z,6.80
2019-01-17T04:57:58.829Z,6.48
2019-01-17T05:00:28.520Z,6.33
2019-01-17T05:02:58.224Z,6.51
2019-01-17T05:05:27.856Z,6.54
2019-01-17T05:07:57.454Z,6.84
2019-01-17T05:10:27.032Z,6.99
2019-01-17T05:12:56.661Z,7.00
2019-01-17T05:15:26.237Z,6.98
2019-01-17T05:17:55.804Z,7.30
2019-01-17T05:20:25.734Z,7.25
2019-01-17T05:22:55.310Z,7.23
2019-01-17T05:25:25.105Z,7.16
2019-01-17T05:27:54.784Z,6.76
2019-01-17T05:30:24.660Z,6.97
2019-01-17T05:32:54.251Z,6.80
2019-01-17T05:35:23.906Z,6.61
2019-01-17T05:37:53.496Z,6.54
2019-01-17T05:40:23.083Z,6.53
2019-01-17T05:42:52.723Z,7.12
2019-01-17T05:45:22.293Z,6.48
2019-01-17T05:47:51.922Z,6.43
2019-01-17T05:50:21.582Z,6.46
2019-01-17T05:52:51.881Z,6.23
2019-01-17T05:55:21.543Z,5.99
2019-01-17T05:57:55.195Z,6.14
2019-01-17T06:00:24.872Z,6.28
2019-01-17T06:02:54.515Z,6.25
2019-01-17T06:05:24.112Z,6.28
2019-01-17T06:07:53.714Z,6.19
2019-01-17T06:10:23.335Z,6.37
2019-01-17T06:12:53.908Z,6.32
2019-01-17T06:15:24.538Z,6.15
2019-01-17T06:17:54.139Z,5.94
2019-01-17T06:20:23.875Z,5.93
2019-01-17T06:22:53.543Z,6.22
2019-01-17T06:25:27.987Z,6.29
2019-01-17T06:27:55.515Z,6.17
2019-01-17T06:30:25.170Z,5.85
2019-01-17T06:32:54.867Z,5.97
2019-01-17T06:35:24.472Z,5.85
2019-01-17T06:37:57.204Z,6.04
2019-01-17T06:40:32.137Z,6.02
2019-01-17T06:43:01.758Z,5.97
2019-01-17T06:45:31.339Z,6.01
2019-01-17T06:48:00.997Z,6.24
2019-01-17T06:50:30.631Z,6.32
2019-01-17T06:53:00.474Z,6.39
2019-01-17T06:55:34.455Z,6.38
2019-01-17T06:58:01.651Z,6.79
2019-01-17T07:00:34.034Z,7.22
2019-01-17T07:03:03.731Z,6.81
2019-01-17T07:05:33.410Z,6.82
2019-01-17T07:08:03.006Z,6.98
2019-01-17T07:10:32.822Z,7.05
2019-01-17T07:13:02.436Z,7.01
2019-01-17T07:15:32.543Z,7.08
2019-01-17T07:18:02.269Z,7.15
2019-01-17T07:20:31.904Z,7.19
2019-01-17T07:23:01.914Z,7.46
2019-01-17T07:25:31.706Z,7.31
2019-01-17T07:28:01.322Z,7.21
2019-01-17T07:30:30.971Z,7.06
2019-01-17T07:33:00.729Z,7.75
2019-01-17T07:35:30.338Z,7.77
2019-01-17T07:37:59.934Z,7.74
2019-01-17T07:40:31.550Z,6.98
2019-01-17T07:43:01.152Z,7.01
2019-01-17T07:45:31.372Z,6.58
2019-01-17T07:48:01.100Z,6.32
2019-01-17T07:50:31.140Z,6.08
2019-01-17T07:53:00.833Z,6.08
2019-01-17T07:55:30.999Z,6.74
2019-01-17T07:58:00.592Z,7.06
2019-01-17T08:00:30.354Z,7.28
2019-01-17T08:03:00.002Z,7.27
2019-01-17T08:05:29.578Z,6.81
2019-01-17T08:07:59.151Z,6.77
2019-01-17T08:10:28.770Z,7.05
2019-01-17T08:12:58.339Z,7.30
2019-01-17T08:15:27.940Z,7.45
2019-01-17T08:17:57.567Z,8.22
2019-01-17T08:20:27.163Z,8.19
2019-01-17T08:22:56.880Z,8.06
2019-01-17T08:25:26.611Z,8.06
2019-01-17T08:27:56.252Z,8.12
2019-01-17T08:30:27.769Z,8.33
2019-01-17T08:32:57.416Z,8.56
2019-01-17T08:35:27.161Z,9.07
2019-01-17T08:37:56.820Z,9.16
2019-01-17T08:40:31.807Z,9.57
2019-01-17T08:43:01.431Z,9.72
2019-01-17T08:45:31.006Z,9.72
2019-01-17T08:48:00.900Z,9.81
2019-01-17T08:50:30.597Z,9.75
2019-01-17T08:53:00.179Z,10.31
2019-01-17T08:58:13.188Z,10.18
2019-01-17T09:00:42.828Z,10.26
2019-01-17T09:03:12.660Z,10.05
2019-01-17T09:05:42.434Z,10.06
2019-01-17T09:08:12.189Z,10.64
2019-01-17T09:10:41.886Z,10.74
2019-01-17T09:13:11.485Z,10.70
2019-01-17T09:15:42.714Z,11.03
2019-01-17T09:18:12.504Z,11.49
2019-01-17T09:20:42.989Z,10.98
2019-01-17T09:23:15.983Z,11.16
2019-01-17T09:25:46.549Z,11.41
2019-01-17T09:28:16.189Z,12.00
2019-01-17T09:30:45.874Z,11.79
2019-01-17T09:33:15.963Z,12.28
2019-01-17T09:35:45.577Z,12.33
2019-01-17T09:38:15.240Z,12.40
2019-01-17T09:40:45.249Z,11.88
2019-01-17T09:43:14.839Z,12.40
2019-01-17T09:45:44.497Z,11.45
2019-01-17T09:48:14.195Z,11.96
2019-01-17T09:50:43.781Z,11.94
2019-01-17T09:53:13.440Z,11.84
2019-01-17T09:55:43.081Z,12.21
2019-01-17T09:58:12.702Z,12.13
2019-01-17T10:00:42.412Z,12.78
2019-01-17T10:03:11.976Z,13.07
2019-01-17T10:05:41.552Z,12.90
2019-01-17T10:08:11.214Z,12.36
2019-01-17T10:10:41.740Z,12.14
2019-01-17T10:13:11.947Z,12.32
2019-01-17T10:16:11.692Z,12.83
2019-01-17T10:19:16.179Z,12.67
2019-01-17T10:22:23.146Z,13.20
2019-01-17T10:25:19.033Z,13.25
2019-01-17T10:28:24.948Z,12.34
2019-01-17T10:31:42.197Z,12.49
2019-01-17T10:34:35.905Z,12.27
2019-01-17T10:37:45.356Z,12.51
2019-01-17T10:41:08.101Z,13.01
2019-01-17T10:44:18.674Z,12.55
2019-01-17T10:47:40.624Z,12.76
2019-01-17T10:50:49.209Z,13.13
2019-01-17T10:54:14.711Z,13.40
2019-01-17T10:57:03.975Z,13.75
2019-01-17T11:00:23.249Z,13.47
2019-01-17T11:03:31.920Z,13.27
2019-01-17T11:06:45.432Z,13.66
2019-01-17T11:09:48.401Z,14.01
2019-01-17T11:12:38.578Z,13.65
2019-01-17T11:18:44.945Z,14.13
2019-01-17T11:21:53.719Z,13.90
2019-01-17T11:25:05.201Z,13.79
2019-01-17T11:28:09.478Z,14.14
2019-01-17T11:31:38.138Z,14.45
2019-01-17T11:34:38.103Z,14.64
2019-01-17T11:37:40.564Z,13.91
2019-01-17T11:40:32.190Z,14.12
2019-01-17T11:43:48.249Z,13.87
2019-01-17T11:47:04.970Z,14.15
2019-01-17T11:50:04.119Z,13.74
2019-01-17T11:53:25.080Z,13.85
2019-01-17T11:56:30.348Z,13.80
2019-01-17T11:59:52.831Z,14.48
2019-01-17T12:02:48.139Z,13.73
2019-01-17T12:05:17.840Z,14.00
2019-01-17T12:07:47.830Z,14.22
2019-01-17T12:10:17.407Z,14.64
2019-01-17T12:12:47.505Z,14.89
2019-01-17T12:15:17.152Z,14.54
2019-01-17T12:17:46.797Z,14.67
2019-01-17T12:20:16.562Z,13.75
2019-01-17T12:22:48.427Z,14.26
2019-01-17T12:25:18.020Z,14.48
2019-01-17T12:27:47.793Z,15.81
2019-01-17T12:30:17.438Z,15.91
2019-01-17T12:32:47.110Z,16.19
2019-01-17T12:35:16.774Z,16.04
2019-01-17T12:37:46.380Z,15.46
2019-01-17T12:40:16.354Z,15.40
2019-01-17T12:42:46.140Z,14.52
2019-01-17T12:45:16.599Z,14.64
2019-01-17T12:47:46.224Z,14.66
2019-01-17T12:50:18.332Z,14.71
2019-01-17T12:52:47.916Z,14.63
2019-01-17T12:55:18.101Z,14.71
2019-01-17T12:57:54.514Z,13.93
2019-01-17T13:00:24.024Z,14.25
2019-01-17T13:02:55.207Z,14.23
2019-01-17T13:05:25.055Z,14.47
2019-01-17T13:07:54.706Z,14.55
2019-01-17T13:10:24.277Z,14.84
2019-01-17T13:12:54.118Z,14.27
2019-01-17T13:15:23.740Z,14.55
2019-01-17T13:17:53.440Z,14.52
2019-01-17T13:20:25.153Z,14.76
2019-01-17T13:22:56.066Z,14.72
2019-01-17T13:25:25.699Z,15.18
2019-01-17T13:27:55.356Z,15.18
2019-01-17T13:30:25.320Z,15.25
2019-01-17T13:32:55.812Z,15.27
2019-01-17T13:35:34.816Z,15.05
2019-01-17T13:38:07.553Z,15.64
2019-01-17T13:40:37.137Z,15.27
2019-01-17T13:43:07.014Z,14.65
2019-01-17T13:45:36.605Z,14.73
2019-01-17T13:48:06.511Z,13.94
2019-01-17T13:53:14.465Z,13.49
2019-01-17T13:55:44.065Z,13.60
2019-01-17T13:58:13.734Z,13.25
2019-01-17T14:00:43.369Z,13.43
2019-01-17T14:03:13.010Z,13.75
2019-01-17T14:05:42.717Z,13.56
2019-01-17T14:08:12.315Z,13.55
2019-01-17T14:10:41.966Z,13.69
2019-01-17T14:13:11.704Z,13.75
2019-01-17T14:15:41.705Z,13.94
2019-01-17T14:18:11.281Z,13.99
2019-01-17T14:20:40.944Z,14.01
2019-01-17T14:23:10.607Z,14.02
2019-01-17T14:25:40.223Z,13.90
2019-01-17T14:28:10.013Z,13.93
2019-01-17T14:30:41.068Z,13.79
2019-01-17T14:33:10.906Z,13.80
2019-01-17T14:35:40.817Z,13.70
2019-01-17T14:38:10.519Z,13.69
2019-01-17T14:40:40.167Z,13.65
2019-01-17T14:43:09.850Z,13.74
2019-01-17T14:45:39.488Z,13.55
2019-01-17T14:48:09.112Z,13.38
2019-01-17T14:50:38.788Z,13.36
2019-01-17T14:53:08.448Z,13.07
2019-01-17T14:55:38.436Z,13.14
2019-01-17T14:58:08.159Z,13.04
2019-01-17T15:00:37.801Z,12.87
2019-01-17T15:03:07.447Z,12.83
2019-01-17T15:08:12.807Z,12.61
2019-01-17T15:10:43.707Z,12.58
2019-01-17T15:13:13.389Z,12.57
2019-01-17T15:15:46.277Z,12.48
2019-01-17T15:18:17.301Z,12.38
2019-01-17T15:20:53.062Z,12.33
2019-01-17T15:23:22.856Z,12.15
2019-01-17T15:25:52.510Z,12.33
2019-01-17T15:28:22.160Z,12.05
2019-01-17T15:30:51.921Z,11.65
2019-01-17T15:33:21.515Z,11.69
2019-01-17T15:35:51.204Z,11.61
2019-01-17T15:38:20.985Z,11.52
2019-01-17T15:40:50.645Z,11.43
2019-01-17T15:43:20.315Z,11.28
2019-01-17T15:48:25.987Z,10.97
2019-01-17T15:50:55.800Z,10.92
2019-01-17T15:53:25.479Z,10.87
2019-01-17T15:55:55.085Z,10.64
2019-01-17T15:58:24.765Z,10.58
2019-01-17T16:00:56.100Z,10.36
2019-01-17T16:03:25.725Z,10.37
2019-01-17T16:05:55.450Z,10.30
2019-01-17T16:08:25.110Z,10.16
2019-01-17T16:10:54.739Z,10.07
2019-01-17T16:13:33.459Z,9.99
2019-01-17T16:16:03.528Z,10.00
2019-01-17T16:18:33.208Z,10.01
2019-01-17T16:21:02.952Z,9.96
2019-01-17T16:23:32.603Z,9.84
2019-01-17T16:26:02.311Z,9.89
2019-01-17T16:28:32.146Z,9.85
2019-01-17T16:31:02.774Z,9.82
2019-01-17T16:33:33.913Z,9.77
2019-01-17T16:36:04.037Z,9.87
2019-01-17T16:38:33.715Z,9.89
2019-01-17T16:41:03.380Z,9.83
2019-01-17T16:43:33.097Z,9.75
2019-01-17T16:46:03.821Z,9.87
2019-01-17T16:48:33.511Z,9.92
2019-01-17T16:51:03.281Z,10.02
2019-01-17T16:53:32.905Z,10.00
2019-01-17T16:56:02.533Z,10.10
2019-01-17T16:58:32.324Z,10.31
2019-01-17T17:01:01.949Z,10.30
2019-01-17T17:03:31.599Z,10.14
2019-01-17T17:06:01.532Z,10.05
2019-01-17T17:08:31.268Z,10.22
2019-01-17T17:11:00.873Z,10.04
2019-01-17T17:13:30.666Z,9.92
2019-01-17T17:16:00.310Z,10.03
2019-01-17T17:18:29.926Z,9.98
2019-01-17T17:20:59.641Z,10.03
2019-01-17T17:23:35.696Z,9.83
2019-01-17T17:26:11.555Z,9.67
2019-01-17T17:28:41.218Z,9.73
2019-01-17T17:31:10.861Z,9.63
2019-01-17T17:33:40.594Z,9.67
2019-01-17T17:36:11.478Z,9.69
2019-01-17T17:38:41.101Z,9.40
2019-01-17T17:41:10.860Z,9.24
2019-01-17T17:43:40.472Z,9.06
2019-01-17T17:46:10.524Z,9.12
2019-01-17T17:48:40.175Z,9.06
2019-01-17T17:51:09.804Z,9.08
2019-01-17T17:53:39.453Z,9.11
2019-01-17T17:56:10.477Z,9.15
2019-01-17T17:58:40.110Z,9.26
2019-01-17T18:01:29.042Z,9.22
2019-01-17T18:03:58.661Z,9.26
2019-01-17T18:06:28.292Z,9.36
2019-01-17T18:08:58.092Z,9.17
2019-01-17T18:11:27.744Z,9.04
2019-01-17T18:13:57.385Z,8.77
2019-01-17T18:16:27.059Z,8.76
2019-01-17T18:18:56.689Z,8.68
2019-01-17T18:21:26.338Z,8.73
2019-01-17T18:23:56.516Z,8.64
2019-01-17T18:26:26.138Z,8.69
2019-01-17T18:28:55.757Z,8.78
2019-01-17T18:31:25.512Z,8.60
2019-01-17T18:33:55.452Z,9.07
2019-01-17T18:36:25.709Z,8.87
2019-01-17T18:38:55.405Z,8.71
2019-01-17T18:41:25.023Z,8.70
2019-01-17T18:43:54.767Z,8.64
2019-01-17T18:46:24.504Z,8.82
2019-01-17T18:48:54.188Z,8.97
2019-01-17T18:51:23.962Z,8.90
2019-01-17T18:53:53.650Z,8.90
2019-01-17T18:56:23.286Z,8.90
2019-01-17T18:58:52.986Z,8.94
2019-01-17T19:01:22.780Z,8.52
2019-01-17T19:03:52.537Z,8.15
2019-01-17T19:06:22.174Z,8.08
2019-01-17T19:08:58.895Z,7.50
2019-01-17T19:11:28.557Z,7.56
2019-01-17T19:13:58.295Z,7.34
2019-01-17T19:16:27.989Z,7.18
2019-01-17T19:18:57.659Z,6.98
2019-01-17T19:21:27.333Z,6.90
2019-01-17T19:23:57.034Z,6.97
2019-01-17T19:26:26.737Z,7.09
2019-01-17T19:28:56.442Z,7.01
2019-01-17T19:31:26.242Z,6.77
2019-01-17T19:33:56.047Z,6.75
2019-01-17T19:36:25.759Z,7.11
2019-01-17T19:38:55.563Z,7.24
2019-01-17T19:41:25.243Z,7.42
2019-01-17T19:43:54.871Z,7.36
2019-01-17T19:46:24.533Z,6.90
2019-01-17T19:48:54.427Z,6.56
2019-01-17T19:51:24.296Z,6.68
2019-01-17T19:53:53.968Z,6.48
2019-01-17T19:56:23.621Z,6.55
2019-01-17T19:58:53.284Z,6.61
2019-01-17T20:01:23.091Z,6.66
2019-01-17T20:03:52.789Z,6.77
2019-01-17T20:06:25.200Z,6.58
2019-01-17T20:09:12.656Z,6.26
2019-01-17T20:12:07.039Z,5.99
2019-01-17T20:14:41.210Z,6.18
2019-01-17T20:17:11.061Z,5.86
2019-01-17T20:19:40.702Z,5.68
2019-01-17T20:22:10.503Z,5.87
2019-01-17T20:24:40.152Z,6.46
2019-01-17T20:27:09.783Z,6.15
2019-01-17T20:29:39.469Z,6.09
2019-01-17T20:32:09.067Z,6.01
2019-01-17T20:34:38.738Z,6.01
2019-01-17T20:37:08.542Z,5.98
2019-01-17T20:39:38.138Z,6.07
2019-01-17T20:42:07.847Z,5.83
2019-01-17T20:44:37.522Z,5.88
2019-01-17T20:47:07.153Z,5.97
2019-01-17T20:49:36.790Z,6.10
2019-01-17T20:52:06.500Z,6.18
2019-01-17T20:54:36.098Z,6.04
2019-01-17T20:57:07.336Z,6.18
2019-01-17T20:59:37.003Z,6.16
2019-01-17T21:02:18.798Z,6.11
2019-01-17T21:04:48.691Z,6.18
2019-01-17T21:07:18.328Z,6.11
2019-01-17T21:09:47.934Z,6.08
2019-01-17T21:12:17.730Z,6.05
2019-01-17T21:14:47.363Z,6.11
2019-01-17T21:17:17.002Z,6.32
2019-01-17T21:19:46.647Z,6.35
2019-01-17T21:22:18.605Z,6.41
2019-01-17T21:24:50.424Z,6.33
2019-01-17T21:27:25.400Z,6.41
2019-01-17T21:30:01.987Z,6.49
2019-01-17T21:32:31.726Z,6.44
2019-01-17T21:35:01.413Z,6.39
2019-01-17T21:37:43.104Z,6.39
2019-01-17T21:40:15.278Z,6.53
2019-01-17T21:42:44.941Z,6.28
2019-01-17T21:45:16.546Z,6.34
2019-01-17T21:47:46.318Z,6.21
2019-01-17T21:50:21.360Z,6.29
2019-01-17T21:52:51.005Z,6.55
2019-01-17T21:55:20.744Z,6.42
2019-01-17T21:57:50.438Z,6.44
2019-01-17T22:00:22.248Z,6.63
2019-01-17T22:02:51.905Z,6.47
2019-01-17T22:05:27.537Z,6.55
2019-01-17T22:07:57.284Z,6.66
2019-01-17T22:10:29.319Z,6.40
2019-01-17T22:12:58.939Z,6.46
2019-01-17T22:15:31.066Z,6.74
2019-01-17T22:18:00.694Z,6.59
2019-01-17T22:20:30.453Z,6.57
2019-01-17T22:23:08.943Z,6.53
2019-01-17T22:25:38.637Z,6.51
2019-01-17T22:28:08.269Z,6.41
2019-01-17T22:30:37.942Z,6.44
2019-01-17T22:33:07.585Z,6.82
2019-01-17T22:35:37.229Z,7.05
2019-01-17T22:38:06.921Z,6.70
2019-01-17T22:40:38.666Z,6.77
2019-01-17T22:43:08.400Z,6.59
2019-01-17T22:45:54.055Z,6.56
2019-01-17T22:48:27.247Z,6.69
2019-01-17T22:51:04.752Z,6.55
2019-01-17T22:53:34.545Z,6.35
2019-01-17T22:56:04.342Z,6.35
2019-01-17T22:58:33.997Z,6.36
2019-01-17T23:01:17.870Z,6.34
2019-01-17T23:03:48.560Z,6.26
2019-01-17T23:06:18.183Z,6.26
2019-01-17T23:08:47.836Z,6.32
2019-01-17T23:11:17.993Z,6.42
2019-01-17T23:13:47.801Z,6.37
2019-01-17T23:16:17.476Z,6.27
2019-01-17T23:18:47.491Z,6.30
2019-01-17T23:21:17.118Z,6.12
2019-01-17T23:23:46.879Z,5.90
2019-01-17T23:26:16.509Z,5.67
2019-01-17T23:28:46.819Z,5.88
2019-01-17T23:34:07.528Z,5.83
2019-01-17T23:36:37.145Z,5.91
2019-01-17T23:39:10.610Z,5.69
2019-01-17T23:41:40.491Z,5.50
2019-01-17T23:44:10.135Z,5.45
2019-01-17T23:46:39.796Z,5.36
2019-01-17T23:49:10.272Z,5.52
2019-01-17T23:51:39.867Z,5.32
2019-01-17T23:54:09.586Z,5.27
2019-01-17T23:56:39.194Z,5.63
2019-01-17T23:59:08.810Z,5.38
